sensor_id;sensor_type;location;lat;lon;timestamp;temperature;humidity
4699;DHT22;33708;49.466;11.176;2024-02-15T00:01:57;10.20;99.90
4699;DHT22;33708;49.466;11.176;2024-02-15T00:04:23;10.10;99.90
4699;DHT22;33708;49.466;11.176;2024-02-15T00:06:48;10.10;99.90
4699;DHT22;33708;49.466;11.176;2024-02-15T00:09:14;10.10;99.90
4699;DHT22;33708;49.466;11.176;2024-02-15T00:11:39;10.10;99.90
4699;DHT22;33708;49.466;11.176;2024-02-15T00:14:05;10.20;99.90
4699;DHT22;33708;49.466;11.176;2024-02-15T00:16:31;10.20;99.90
4699;DHT22;33708;49.466;11.176;2024-02-15T00:18:57;10.10;99.90
4699;DHT22;33708;49.466;11.176;2024-02-15T00:21:23;10.00;99.90
4699;DHT22;33708;49.466;11.176;2024-02-15T00:23:48;10.20;99.90
4699;DHT22;33708;49.466;11.176;2024-02-15T00:26:15;10.20;99.90
4699;DHT22;33708;49.466;11.176;2024-02-15T00:28:43;10.20;99.90
4699;DHT22;33708;49.466;11.176;2024-02-15T00:31:09;10.10;99.90
4699;DHT22;33708;49.466;11.176;2024-02-15T00:33:34;10.10;99.90
4699;DHT22;33708;49.466;11.176;2024-02-15T00:36:04;10.20;99.90
4699;DHT22;33708;49.466;11.176;2024-02-15T00:38:31;10.20;99.90
4699;DHT22;33708;49.466;11.176;2024-02-15T00:40:57;10.10;99.90
4699;DHT22;33708;49.466;11.176;2024-02-15T00:43:26;10.00;99.90
4699;DHT22;33708;49.466;11.176;2024-02-15T00:45:51;10.00;99.90
4699;DHT22;33708;49.466;11.176;2024-02-15T00:48:17;10.10;99.90
4699;DHT22;33708;49.466;11.176;2024-02-15T00:50:43;10.20;99.90
4699;DHT22;33708;49.466;11.176;2024-02-15T00:53:08;10.10;99.90
4699;DHT22;33708;49.466;11.176;2024-02-15T00:55:34;10.10;99.90
4699;DHT22;33708;49.466;11.176;2024-02-15T00:57:59;10.30;99.90
4699;DHT22;33708;49.466;11.176;2024-02-15T01:00:25;10.40;99.90
4699;DHT22;33708;49.466;11.176;2024-02-15T01:02:51;10.40;99.90
4699;DHT22;33708;49.466;11.176;2024-02-15T01:05:18;10.40;99.90
4699;DHT22;33708;49.466;11.176;2024-02-15T01:07:44;10.50;99.90
4699;DHT22;33708;49.466;11.176;2024-02-15T01:10:10;10.50;99.90
4699;DHT22;33708;49.466;11.176;2024-02-15T01:12:35;10.50;99.90
4699;DHT22;33708;49.466;11.176;2024-02-15T01:15:01;10.50;99.90
4699;DHT22;33708;49.466;11.176;2024-02-15T01:17:28;10.40;99.90
4699;DHT22;33708;49.466;11.176;2024-02-15T01:19:54;10.30;99.90
4699;DHT22;33708;49.466;11.176;2024-02-15T01:22:20;10.30;99.90
4699;DHT22;33708;49.466;11.176;2024-02-15T01:24:49;10.10;99.90
4699;DHT22;33708;49.466;11.176;2024-02-15T01:27:14;10.10;99.90
4699;DHT22;33708;49.466;11.176;2024-02-15T01:29:40;10.20;99.90
4699;DHT22;33708;49.466;11.176;2024-02-15T01:32:05;10.00;99.90
4699;DHT22;33708;49.466;11.176;2024-02-15T01:34:31;10.10;99.90
4699;DHT22;33708;49.466;11.176;2024-02-15T01:36:57;10.10;99.90
4699;DHT22;33708;49.466;11.176;2024-02-15T01:39:23;10.10;99.90
4699;DHT22;33708;49.466;11.176;2024-02-15T01:41:49;10.20;99.90
4699;DHT22;33708;49.466;11.176;2024-02-15T01:44:21;10.30;99.90
4699;DHT22;33708;49.466;11.176;2024-02-15T01:46:50;10.30;99.90
4699;DHT22;33708;49.466;11.176;2024-02-15T01:49:21;10.30;99.90
4699;DHT22;33708;49.466;11.176;2024-02-15T01:51:51;10.30;99.90
4699;DHT22;33708;49.466;11.176;2024-02-15T01:54:19;10.20;99.90
4699;DHT22;33708;49.466;11.176;2024-02-15T01:56:45;10.10;99.90
4699;DHT22;33708;49.466;11.176;2024-02-15T01:59:13;10.00;99.90
4699;DHT22;33708;49.466;11.176;2024-02-15T02:01:41;10.10;99.90
4699;DHT22;33708;49.466;11.176;2024-02-15T02:04:07;10.20;99.90
4699;DHT22;33708;49.466;11.176;2024-02-15T02:06:33;10.30;99.90
4699;DHT22;33708;49.466;11.176;2024-02-15T02:08:59;10.30;99.90
4699;DHT22;33708;49.466;11.176;2024-02-15T02:11:25;10.40;99.90
4699;DHT22;33708;49.466;11.176;2024-02-15T02:13:51;10.20;99.90
4699;DHT22;33708;49.466;11.176;2024-02-15T02:16:27;10.10;99.90
4699;DHT22;33708;49.466;11.176;2024-02-15T02:18:58;10.10;99.90
4699;DHT22;33708;49.466;11.176;2024-02-15T02:21:25;10.20;99.90
4699;DHT22;33708;49.466;11.176;2024-02-15T02:23:57;10.10;99.90
4699;DHT22;33708;49.466;11.176;2024-02-15T02:26:24;10.10;99.90
4699;DHT22;33708;49.466;11.176;2024-02-15T02:28:51;10.10;99.90
4699;DHT22;33708;49.466;11.176;2024-02-15T02:31:19;10.20;99.90
4699;DHT22;33708;49.466;11.176;2024-02-15T02:33:51;10.20;99.90
4699;DHT22;33708;49.466;11.176;2024-02-15T02:36:20;10.10;99.90
4699;DHT22;33708;49.466;11.176;2024-02-15T02:38:46;10.20;99.90
4699;DHT22;33708;49.466;11.176;2024-02-15T02:41:15;10.20;99.90
4699;DHT22;33708;49.466;11.176;2024-02-15T02:43:41;10.20;99.90
4699;DHT22;33708;49.466;11.176;2024-02-15T02:46:10;10.30;99.90
4699;DHT22;33708;49.466;11.176;2024-02-15T02:48:36;10.20;99.90
4699;DHT22;33708;49.466;11.176;2024-02-15T02:51:02;10.30;99.90
4699;DHT22;33708;49.466;11.176;2024-02-15T02:53:28;10.20;99.90
4699;DHT22;33708;49.466;11.176;2024-02-15T02:55:55;10.10;99.90
4699;DHT22;33708;49.466;11.176;2024-02-15T02:58:22;10.10;99.90
4699;DHT22;33708;49.466;11.176;2024-02-15T03:00:48;10.20;99.90
4699;DHT22;33708;49.466;11.176;2024-02-15T03:03:15;10.30;99.90
4699;DHT22;33708;49.466;11.176;2024-02-15T03:05:41;10.30;99.90
4699;DHT22;33708;49.466;11.176;2024-02-15T03:08:08;10.50;99.90
4699;DHT22;33708;49.466;11.176;2024-02-15T03:10:37;10.40;99.90
4699;DHT22;33708;49.466;11.176;2024-02-15T03:13:04;10.30;99.90
4699;DHT22;33708;49.466;11.176;2024-02-15T03:15:30;10.30;99.90
4699;DHT22;33708;49.466;11.176;2024-02-15T03:17:58;10.30;99.90
4699;DHT22;33708;49.466;11.176;2024-02-15T03:20:24;10.40;99.90
4699;DHT22;33708;49.466;11.176;2024-02-15T03:22:53;10.30;99.90
4699;DHT22;33708;49.466;11.176;2024-02-15T03:25:19;10.30;99.90
4699;DHT22;33708;49.466;11.176;2024-02-15T03:27:45;10.20;99.90
4699;DHT22;33708;49.466;11.176;2024-02-15T03:30:11;10.20;99.90
4699;DHT22;33708;49.466;11.176;2024-02-15T03:32:37;10.20;99.90
4699;DHT22;33708;49.466;11.176;2024-02-15T03:35:03;10.20;99.90
4699;DHT22;33708;49.466;11.176;2024-02-15T03:37:29;10.20;99.90
4699;DHT22;33708;49.466;11.176;2024-02-15T03:39:55;10.20;99.90
4699;DHT22;33708;49.466;11.176;2024-02-15T03:42:20;10.00;99.90
4699;DHT22;33708;49.466;11.176;2024-02-15T03:44:46;10.20;99.90
4699;DHT22;33708;49.466;11.176;2024-02-15T03:47:13;10.00;99.90
4699;DHT22;33708;49.466;11.176;2024-02-15T03:49:39;10.00;99.90
4699;DHT22;33708;49.466;11.176;2024-02-15T03:52:06;10.10;99.90
4699;DHT22;33708;49.466;11.176;2024-02-15T03:54:34;10.10;99.90
4699;DHT22;33708;49.466;11.176;2024-02-15T03:56:59;10.10;99.90
4699;DHT22;33708;49.466;11.176;2024-02-15T03:59:25;10.10;99.90
4699;DHT22;33708;49.466;11.176;2024-02-15T04:01:55;10.00;99.90
4699;DHT22;33708;49.466;11.176;2024-02-15T04:04:22;9.90;99.90
4699;DHT22;33708;49.466;11.176;2024-02-15T04:06:51;10.00;99.90
4699;DHT22;33708;49.466;11.176;2024-02-15T04:09:17;9.90;99.90
4699;DHT22;33708;49.466;11.176;2024-02-15T04:11:47;9.80;99.90
4699;DHT22;33708;49.466;11.176;2024-02-15T04:14:16;9.90;99.90
4699;DHT22;33708;49.466;11.176;2024-02-15T04:16:43;9.90;99.90
4699;DHT22;33708;49.466;11.176;2024-02-15T04:19:12;9.90;99.90
4699;DHT22;33708;49.466;11.176;2024-02-15T04:21:38;9.90;99.90
4699;DHT22;33708;49.466;11.176;2024-02-15T04:24:05;9.80;99.90
4699;DHT22;33708;49.466;11.176;2024-02-15T04:26:31;9.70;99.90
4699;DHT22;33708;49.466;11.176;2024-02-15T04:28:57;9.60;99.90
4699;DHT22;33708;49.466;11.176;2024-02-15T04:31:24;9.30;99.90
4699;DHT22;33708;49.466;11.176;2024-02-15T04:33:55;9.10;99.90
4699;DHT22;33708;49.466;11.176;2024-02-15T04:36:21;9.00;99.90
4699;DHT22;33708;49.466;11.176;2024-02-15T04:38:51;8.80;99.90
4699;DHT22;33708;49.466;11.176;2024-02-15T04:41:17;8.70;99.90
4699;DHT22;33708;49.466;11.176;2024-02-15T04:43:49;8.60;99.90
4699;DHT22;33708;49.466;11.176;2024-02-15T04:46:14;8.50;99.90
4699;DHT22;33708;49.466;11.176;2024-02-15T04:48:43;8.40;99.90
4699;DHT22;33708;49.466;11.176;2024-02-15T04:51:10;8.50;99.90
4699;DHT22;33708;49.466;11.176;2024-02-15T04:53:38;8.50;99.90
4699;DHT22;33708;49.466;11.176;2024-02-15T04:56:05;8.50;99.90
4699;DHT22;33708;49.466;11.176;2024-02-15T04:58:37;8.70;99.90
4699;DHT22;33708;49.466;11.176;2024-02-15T05:01:03;8.90;99.90
4699;DHT22;33708;49.466;11.176;2024-02-15T05:03:31;9.00;99.90
4699;DHT22;33708;49.466;11.176;2024-02-15T05:06:00;9.20;99.90
4699;DHT22;33708;49.466;11.176;2024-02-15T05:08:26;9.10;99.90
4699;DHT22;33708;49.466;11.176;2024-02-15T05:10:51;9.10;99.90
4699;DHT22;33708;49.466;11.176;2024-02-15T05:13:23;9.10;99.90
4699;DHT22;33708;49.466;11.176;2024-02-15T05:15:49;9.10;99.90
4699;DHT22;33708;49.466;11.176;2024-02-15T05:18:15;9.10;99.90
4699;DHT22;33708;49.466;11.176;2024-02-15T05:20:42;9.20;99.90
4699;DHT22;33708;49.466;11.176;2024-02-15T05:23:08;9.20;99.90
4699;DHT22;33708;49.466;11.176;2024-02-15T05:25:34;9.30;99.90
4699;DHT22;33708;49.466;11.176;2024-02-15T05:28:01;9.30;99.90
4699;DHT22;33708;49.466;11.176;2024-02-15T05:30:26;9.30;99.90
4699;DHT22;33708;49.466;11.176;2024-02-15T05:32:52;9.40;99.90
4699;DHT22;33708;49.466;11.176;2024-02-15T05:35:18;9.30;99.90
4699;DHT22;33708;49.466;11.176;2024-02-15T05:37:44;9.30;99.90
4699;DHT22;33708;49.466;11.176;2024-02-15T05:40:11;9.50;99.90
4699;DHT22;33708;49.466;11.176;2024-02-15T05:42:42;9.60;99.90
4699;DHT22;33708;49.466;11.176;2024-02-15T05:47:50;9.70;99.90
4699;DHT22;33708;49.466;11.176;2024-02-15T05:50:15;9.70;99.90
4699;DHT22;33708;49.466;11.176;2024-02-15T05:52:42;9.70;99.90
4699;DHT22;33708;49.466;11.176;2024-02-15T05:55:08;9.70;99.90
4699;DHT22;33708;49.466;11.176;2024-02-15T05:57:33;9.80;99.90
4699;DHT22;33708;49.466;11.176;2024-02-15T05:59:59;9.80;99.90
4699;DHT22;33708;49.466;11.176;2024-02-15T06:02:28;9.80;99.90
4699;DHT22;33708;49.466;11.176;2024-02-15T06:04:55;9.60;99.90
4699;DHT22;33708;49.466;11.176;2024-02-15T06:07:26;9.70;99.90
4699;DHT22;33708;49.466;11.176;2024-02-15T06:09:52;9.60;99.90
4699;DHT22;33708;49.466;11.176;2024-02-15T06:12:17;9.70;99.90
4699;DHT22;33708;49.466;11.176;2024-02-15T06:14:43;9.60;99.90
4699;DHT22;33708;49.466;11.176;2024-02-15T06:17:08;9.70;99.90
4699;DHT22;33708;49.466;11.176;2024-02-15T06:19:36;9.60;99.90
4699;DHT22;33708;49.466;11.176;2024-02-15T06:22:01;9.80;99.90
4699;DHT22;33708;49.466;11.176;2024-02-15T06:24:27;9.80;99.90
4699;DHT22;33708;49.466;11.176;2024-02-15T06:26:54;9.70;99.90
4699;DHT22;33708;49.466;11.176;2024-02-15T06:29:25;9.70;99.90
4699;DHT22;33708;49.466;11.176;2024-02-15T06:32:09;9.70;99.90
4699;DHT22;33708;49.466;11.176;2024-02-15T06:34:54;9.60;99.90
4699;DHT22;33708;49.466;11.176;2024-02-15T06:37:39;9.60;99.90
4699;DHT22;33708;49.466;11.176;2024-02-15T06:40:24;9.50;99.90
4699;DHT22;33708;49.466;11.176;2024-02-15T06:42:50;9.50;99.90
4699;DHT22;33708;49.466;11.176;2024-02-15T06:45:16;9.50;99.90
4699;DHT22;33708;49.466;11.176;2024-02-15T06:47:43;9.40;99.90
4699;DHT22;33708;49.466;11.176;2024-02-15T06:50:11;9.40;99.90
4699;DHT22;33708;49.466;11.176;2024-02-15T06:52:37;9.50;99.90
4699;DHT22;33708;49.466;11.176;2024-02-15T06:55:05;9.70;99.90
4699;DHT22;33708;49.466;11.176;2024-02-15T06:57:31;9.90;99.90
4699;DHT22;33708;49.466;11.176;2024-02-15T06:59:56;9.70;99.90
4699;DHT22;33708;49.466;11.176;2024-02-15T07:02:22;9.60;99.90
4699;DHT22;33708;49.466;11.176;2024-02-15T07:04:48;9.60;99.90
4699;DHT22;33708;49.466;11.176;2024-02-15T07:07:14;9.70;99.90
4699;DHT22;33708;49.466;11.176;2024-02-15T07:09:40;9.80;99.90
4699;DHT22;33708;49.466;11.176;2024-02-15T07:12:06;9.70;99.90
4699;DHT22;33708;49.466;11.176;2024-02-15T07:14:32;9.60;99.90
4699;DHT22;33708;49.466;11.176;2024-02-15T07:16:57;9.60;99.90
4699;DHT22;33708;49.466;11.176;2024-02-15T07:19:23;9.70;99.90
4699;DHT22;33708;49.466;11.176;2024-02-15T07:21:49;10.00;99.90
4699;DHT22;33708;49.466;11.176;2024-02-15T07:24:16;9.90;99.90
4699;DHT22;33708;49.466;11.176;2024-02-15T07:26:42;10.00;99.90
4699;DHT22;33708;49.466;11.176;2024-02-15T07:29:07;9.90;99.90
4699;DHT22;33708;49.466;11.176;2024-02-15T07:31:33;10.10;99.90
4699;DHT22;33708;49.466;11.176;2024-02-15T07:33:59;10.10;99.90
4699;DHT22;33708;49.466;11.176;2024-02-15T07:36:25;10.20;99.90
4699;DHT22;33708;49.466;11.176;2024-02-15T07:38:52;11.60;99.90
4699;DHT22;33708;49.466;11.176;2024-02-15T07:41:19;10.50;99.90
4699;DHT22;33708;49.466;11.176;2024-02-15T07:43:50;10.40;99.90
4699;DHT22;33708;49.466;11.176;2024-02-15T07:46:17;10.30;99.90
4699;DHT22;33708;49.466;11.176;2024-02-15T07:48:43;10.10;99.90
4699;DHT22;33708;49.466;11.176;2024-02-15T07:51:16;10.40;99.90
4699;DHT22;33708;49.466;11.176;2024-02-15T07:53:43;10.30;99.90
4699;DHT22;33708;49.466;11.176;2024-02-15T07:56:10;10.50;99.90
4699;DHT22;33708;49.466;11.176;2024-02-15T07:58:45;10.60;99.90
4699;DHT22;33708;49.466;11.176;2024-02-15T08:01:13;10.50;99.90
4699;DHT22;33708;49.466;11.176;2024-02-15T08:03:39;10.80;99.90
4699;DHT22;33708;49.466;11.176;2024-02-15T08:06:10;10.20;99.90
4699;DHT22;33708;49.466;11.176;2024-02-15T08:08:41;10.70;99.90
4699;DHT22;33708;49.466;11.176;2024-02-15T08:11:07;10.90;99.90
4699;DHT22;33708;49.466;11.176;2024-02-15T08:13:50;10.90;99.90
4699;DHT22;33708;49.466;11.176;2024-02-15T08:16:20;10.90;99.90
4699;DHT22;33708;49.466;11.176;2024-02-15T08:18:48;10.90;99.90
4699;DHT22;33708;49.466;11.176;2024-02-15T08:21:17;10.90;99.90
4699;DHT22;33708;49.466;11.176;2024-02-15T08:23:43;10.80;99.90
4699;DHT22;33708;49.466;11.176;2024-02-15T08:26:09;10.80;99.90
4699;DHT22;33708;49.466;11.176;2024-02-15T08:28:36;11.00;99.90
4699;DHT22;33708;49.466;11.176;2024-02-15T08:31:02;10.80;99.90
4699;DHT22;33708;49.466;11.176;2024-02-15T08:33:29;10.90;99.90
4699;DHT22;33708;49.466;11.176;2024-02-15T08:35:55;11.10;99.90
4699;DHT22;33708;49.466;11.176;2024-02-15T08:38:25;11.00;99.90
4699;DHT22;33708;49.466;11.176;2024-02-15T08:40:51;11.10;99.90
4699;DHT22;33708;49.466;11.176;2024-02-15T08:43:17;11.10;99.90
4699;DHT22;33708;49.466;11.176;2024-02-15T08:45:43;11.20;99.90
4699;DHT22;33708;49.466;11.176;2024-02-15T08:48:09;11.20;99.90
4699;DHT22;33708;49.466;11.176;2024-02-15T08:50:34;11.20;99.90
4699;DHT22;33708;49.466;11.176;2024-02-15T08:53:00;11.20;99.90
4699;DHT22;33708;49.466;11.176;2024-02-15T08:55:26;11.20;99.90
4699;DHT22;33708;49.466;11.176;2024-02-15T08:57:53;11.10;99.90
4699;DHT22;33708;49.466;11.176;2024-02-15T09:00:20;11.10;99.90
4699;DHT22;33708;49.466;11.176;2024-02-15T09:02:46;11.30;99.90
4699;DHT22;33708;49.466;11.176;2024-02-15T09:05:15;11.40;99.90
4699;DHT22;33708;49.466;11.176;2024-02-15T09:07:44;11.50;99.90
4699;DHT22;33708;49.466;11.176;2024-02-15T09:10:13;11.60;99.90
4699;DHT22;33708;49.466;11.176;2024-02-15T09:12:40;11.60;99.90
4699;DHT22;33708;49.466;11.176;2024-02-15T09:15:09;11.70;99.90
4699;DHT22;33708;49.466;11.176;2024-02-15T09:17:36;11.60;99.90
4699;DHT22;33708;49.466;11.176;2024-02-15T09:20:09;11.60;99.90
4699;DHT22;33708;49.466;11.176;2024-02-15T09:22:52;11.70;99.90
4699;DHT22;33708;49.466;11.176;2024-02-15T09:25:20;11.60;99.90
4699;DHT22;33708;49.466;11.176;2024-02-15T09:27:49;11.60;99.90
4699;DHT22;33708;49.466;11.176;2024-02-15T09:30:16;11.80;99.90
4699;DHT22;33708;49.466;11.176;2024-02-15T09:32:42;11.80;99.90
4699;DHT22;33708;49.466;11.176;2024-02-15T09:35:10;12.00;99.90
4699;DHT22;33708;49.466;11.176;2024-02-15T09:37:47;12.10;99.90
4699;DHT22;33708;49.466;11.176;2024-02-15T09:40:18;12.10;99.90
4699;DHT22;33708;49.466;11.176;2024-02-15T09:42:44;12.10;99.90
4699;DHT22;33708;49.466;11.176;2024-02-15T09:45:14;12.40;99.90
4699;DHT22;33708;49.466;11.176;2024-02-15T09:47:44;12.40;99.90
4699;DHT22;33708;49.466;11.176;2024-02-15T09:50:14;12.30;99.90
4699;DHT22;33708;49.466;11.176;2024-02-15T09:52:44;12.40;99.90
4699;DHT22;33708;49.466;11.176;2024-02-15T09:55:10;12.70;99.90
4699;DHT22;33708;49.466;11.176;2024-02-15T09:57:42;12.80;99.90
4699;DHT22;33708;49.466;11.176;2024-02-15T10:00:08;12.80;99.90
4699;DHT22;33708;49.466;11.176;2024-02-15T10:02:40;13.20;99.90
4699;DHT22;33708;49.466;11.176;2024-02-15T10:05:07;13.30;99.90
4699;DHT22;33708;49.466;11.176;2024-02-15T10:07:40;13.20;99.90
4699;DHT22;33708;49.466;11.176;2024-02-15T10:12:45;13.50;99.90
4699;DHT22;33708;49.466;11.176;2024-02-15T10:15:34;13.60;99.90
4699;DHT22;33708;49.466;11.176;2024-02-15T10:18:01;13.40;99.90
4699;DHT22;33708;49.466;11.176;2024-02-15T10:20:27;13.80;99.90
4699;DHT22;33708;49.466;11.176;2024-02-15T10:25:26;14.20;99.90
4699;DHT22;33708;49.466;11.176;2024-02-15T10:28:10;14.60;99.90
4699;DHT22;33708;49.466;11.176;2024-02-15T10:30:40;14.40;99.90
4699;DHT22;33708;49.466;11.176;2024-02-15T10:33:20;14.60;99.90
4699;DHT22;33708;49.466;11.176;2024-02-15T10:36:05;14.50;99.90
4699;DHT22;33708;49.466;11.176;2024-02-15T10:38:31;14.80;99.90
4699;DHT22;33708;49.466;11.176;2024-02-15T10:41:03;15.10;99.90
4699;DHT22;33708;49.466;11.176;2024-02-15T10:43:34;15.20;99.90
4699;DHT22;33708;49.466;11.176;2024-02-15T10:46:00;15.10;99.90
4699;DHT22;33708;49.466;11.176;2024-02-15T10:48:26;15.50;99.90
4699;DHT22;33708;49.466;11.176;2024-02-15T10:50:56;15.80;99.90
4699;DHT22;33708;49.466;11.176;2024-02-15T10:53:27;15.60;99.90
4699;DHT22;33708;49.466;11.176;2024-02-15T10:58:32;15.70;99.90
4699;DHT22;33708;49.466;11.176;2024-02-15T11:01:00;16.30;99.90
4699;DHT22;33708;49.466;11.176;2024-02-15T11:03:35;16.80;99.90
4699;DHT22;33708;49.466;11.176;2024-02-15T11:06:02;16.90;99.90
4699;DHT22;33708;49.466;11.176;2024-02-15T11:08:30;15.90;99.90
4699;DHT22;33708;49.466;11.176;2024-02-15T11:10:57;16.30;99.90
4699;DHT22;33708;49.466;11.176;2024-02-15T11:13:24;16.30;99.90
4699;DHT22;33708;49.466;11.176;2024-02-15T11:15:50;16.00;99.90
4699;DHT22;33708;49.466;11.176;2024-02-15T11:18:42;15.80;99.90
4699;DHT22;33708;49.466;11.176;2024-02-15T11:24:26;15.60;99.90
4699;DHT22;33708;49.466;11.176;2024-02-15T11:27:01;16.10;99.90
4699;DHT22;33708;49.466;11.176;2024-02-15T11:29:52;16.30;99.90
4699;DHT22;33708;49.466;11.176;2024-02-15T11:32:47;17.00;99.90
4699;DHT22;33708;49.466;11.176;2024-02-15T11:35:24;17.50;99.90
4699;DHT22;33708;49.466;11.176;2024-02-15T11:40:23;18.10;99.90
4699;DHT22;33708;49.466;11.176;2024-02-15T11:45:20;17.80;99.90
4699;DHT22;33708;49.466;11.176;2024-02-15T11:47:51;17.60;99.90
4699;DHT22;33708;49.466;11.176;2024-02-15T11:50:21;17.70;99.90
4699;DHT22;33708;49.466;11.176;2024-02-15T11:52:51;17.60;99.90
4699;DHT22;33708;49.466;11.176;2024-02-15T11:55:23;17.40;99.90
4699;DHT22;33708;49.466;11.176;2024-02-15T11:57:56;17.50;99.90
4699;DHT22;33708;49.466;11.176;2024-02-15T12:00:29;17.60;99.90
4699;DHT22;33708;49.466;11.176;2024-02-15T12:03:16;18.00;99.90
4699;DHT22;33708;49.466;11.176;2024-02-15T12:06:01;18.00;99.90
4699;DHT22;33708;49.466;11.176;2024-02-15T12:08:46;18.20;99.90
4699;DHT22;33708;49.466;11.176;2024-02-15T12:11:31;18.20;99.90
4699;DHT22;33708;49.466;11.176;2024-02-15T12:14:16;17.60;99.90
4699;DHT22;33708;49.466;11.176;2024-02-15T12:17:13;17.40;99.90
4699;DHT22;33708;49.466;11.176;2024-02-15T12:20:00;17.60;99.90
4699;DHT22;33708;49.466;11.176;2024-02-15T12:22:45;17.30;99.90
4699;DHT22;33708;49.466;11.176;2024-02-15T12:25:18;17.40;99.90
4699;DHT22;33708;49.466;11.176;2024-02-15T12:27:52;17.60;99.90
4699;DHT22;33708;49.466;11.176;2024-02-15T12:30:18;17.30;99.90
4699;DHT22;33708;49.466;11.176;2024-02-15T12:32:47;17.20;99.90
4699;DHT22;33708;49.466;11.176;2024-02-15T12:35:15;16.50;99.90
4699;DHT22;33708;49.466;11.176;2024-02-15T12:40:36;16.20;99.90
4699;DHT22;33708;49.466;11.176;2024-02-15T12:43:04;16.30;99.90
4699;DHT22;33708;49.466;11.176;2024-02-15T12:45:31;16.40;99.90
4699;DHT22;33708;49.466;11.176;2024-02-15T12:47:57;16.50;99.90
4699;DHT22;33708;49.466;11.176;2024-02-15T12:50:30;16.60;99.90
4699;DHT22;33708;49.466;11.176;2024-02-15T12:52:56;16.50;99.90
4699;DHT22;33708;49.466;11.176;2024-02-15T12:55:29;16.20;99.90
4699;DHT22;33708;49.466;11.176;2024-02-15T12:58:00;16.20;99.90
4699;DHT22;33708;49.466;11.176;2024-02-15T13:00:30;16.10;99.90
4699;DHT22;33708;49.466;11.176;2024-02-15T13:03:10;16.20;99.90
4699;DHT22;33708;49.466;11.176;2024-02-15T13:05:43;16.30;99.90
4699;DHT22;33708;49.466;11.176;2024-02-15T13:08:09;16.40;99.90
4699;DHT22;33708;49.466;11.176;2024-02-15T13:10:42;16.50;99.90
4699;DHT22;33708;49.466;11.176;2024-02-15T13:13:08;16.50;99.90
4699;DHT22;33708;49.466;11.176;2024-02-15T13:15:41;16.50;99.90
4699;DHT22;33708;49.466;11.176;2024-02-15T13:18:07;16.30;99.90
4699;DHT22;33708;49.466;11.176;2024-02-15T13:20:36;16.60;99.90
4699;DHT22;33708;49.466;11.176;2024-02-15T13:23:08;16.90;99.90
4699;DHT22;33708;49.466;11.176;2024-02-15T13:25:38;16.80;99.90
4699;DHT22;33708;49.466;11.176;2024-02-15T13:28:05;16.90;99.90
4699;DHT22;33708;49.466;11.176;2024-02-15T13:30:31;16.90;99.90
4699;DHT22;33708;49.466;11.176;2024-02-15T13:32:57;16.90;99.90
4699;DHT22;33708;49.466;11.176;2024-02-15T13:35:23;17.00;99.90
4699;DHT22;33708;49.466;11.176;2024-02-15T13:37:55;16.50;99.90
4699;DHT22;33708;49.466;11.176;2024-02-15T13:40:24;17.00;99.90
4699;DHT22;33708;49.466;11.176;2024-02-15T13:42:52;16.40;99.90
4699;DHT22;33708;49.466;11.176;2024-02-15T13:45:22;16.20;99.90
4699;DHT22;33708;49.466;11.176;2024-02-15T13:47:49;16.20;99.90
4699;DHT22;33708;49.466;11.176;2024-02-15T13:50:21;16.20;99.90
4699;DHT22;33708;49.466;11.176;2024-02-15T13:52:47;16.10;99.90
4699;DHT22;33708;49.466;11.176;2024-02-15T13:55:14;16.20;99.90
4699;DHT22;33708;49.466;11.176;2024-02-15T13:57:41;16.10;99.90
4699;DHT22;33708;49.466;11.176;2024-02-15T14:00:11;16.10;99.90
4699;DHT22;33708;49.466;11.176;2024-02-15T14:02:49;15.90;99.90
4699;DHT22;33708;49.466;11.176;2024-02-15T14:05:16;16.00;99.90
4699;DHT22;33708;49.466;11.176;2024-02-15T14:07:49;15.90;99.90
4699;DHT22;33708;49.466;11.176;2024-02-15T14:10:16;15.90;99.90
4699;DHT22;33708;49.466;11.176;2024-02-15T14:12:46;15.60;99.90
4699;DHT22;33708;49.466;11.176;2024-02-15T14:15:11;15.90;99.90
4699;DHT22;33708;49.466;11.176;2024-02-15T14:17:38;15.70;99.90
4699;DHT22;33708;49.466;11.176;2024-02-15T14:20:04;15.70;99.90
4699;DHT22;33708;49.466;11.176;2024-02-15T14:22:34;15.70;99.90
4699;DHT22;33708;49.466;11.176;2024-02-15T14:25:00;15.80;99.90
4699;DHT22;33708;49.466;11.176;2024-02-15T14:27:26;15.80;99.90
4699;DHT22;33708;49.466;11.176;2024-02-15T14:29:52;15.70;99.90
4699;DHT22;33708;49.466;11.176;2024-02-15T14:32:36;15.80;99.90
4699;DHT22;33708;49.466;11.176;2024-02-15T14:35:20;15.70;99.90
4699;DHT22;33708;49.466;11.176;2024-02-15T14:37:47;15.50;99.90
4699;DHT22;33708;49.466;11.176;2024-02-15T14:40:13;15.40;99.90
4699;DHT22;33708;49.466;11.176;2024-02-15T14:42:40;15.50;99.90
4699;DHT22;33708;49.466;11.176;2024-02-15T14:45:11;15.50;99.90
4699;DHT22;33708;49.466;11.176;2024-02-15T14:47:37;15.50;99.90
4699;DHT22;33708;49.466;11.176;2024-02-15T14:50:04;15.50;99.90
4699;DHT22;33708;49.466;11.176;2024-02-15T14:52:36;15.30;99.90
4699;DHT22;33708;49.466;11.176;2024-02-15T14:55:05;15.40;99.90
4699;DHT22;33708;49.466;11.176;2024-02-15T14:57:36;15.20;99.90
4699;DHT22;33708;49.466;11.176;2024-02-15T15:00:06;15.20;99.90
4699;DHT22;33708;49.466;11.176;2024-02-15T15:02:48;15.20;99.90
4699;DHT22;33708;49.466;11.176;2024-02-15T15:05:14;15.30;99.90
4699;DHT22;33708;49.466;11.176;2024-02-15T15:07:58;15.30;99.90
4699;DHT22;33708;49.466;11.176;2024-02-15T15:10:45;15.20;99.90
4699;DHT22;33708;49.466;11.176;2024-02-15T15:13:30;15.30;99.90
4699;DHT22;33708;49.466;11.176;2024-02-15T15:15:55;15.40;99.90
4699;DHT22;33708;49.466;11.176;2024-02-15T15:18:21;15.20;99.90
4699;DHT22;33708;49.466;11.176;2024-02-15T15:20:46;15.20;99.90
4699;DHT22;33708;49.466;11.176;2024-02-15T15:23:13;15.10;99.90
4699;DHT22;33708;49.466;11.176;2024-02-15T15:25:42;15.20;99.90
4699;DHT22;33708;49.466;11.176;2024-02-15T15:28:08;15.10;99.90
4699;DHT22;33708;49.466;11.176;2024-02-15T15:30:34;14.90;99.90
4699;DHT22;33708;49.466;11.176;2024-02-15T15:33:00;14.90;99.90
4699;DHT22;33708;49.466;11.176;2024-02-15T15:35:26;14.70;99.90
4699;DHT22;33708;49.466;11.176;2024-02-15T15:37:53;14.70;99.90
4699;DHT22;33708;49.466;11.176;2024-02-15T15:40:19;14.60;99.90
4699;DHT22;33708;49.466;11.176;2024-02-15T15:42:45;14.50;99.90
4699;DHT22;33708;49.466;11.176;2024-02-15T15:45:11;14.40;99.90
4699;DHT22;33708;49.466;11.176;2024-02-15T15:47:38;14.40;99.90
4699;DHT22;33708;49.466;11.176;2024-02-15T15:50:05;14.30;99.90
4699;DHT22;33708;49.466;11.176;2024-02-15T15:52:35;14.20;99.90
4699;DHT22;33708;49.466;11.176;2024-02-15T15:55:01;14.10;99.90
4699;DHT22;33708;49.466;11.176;2024-02-15T15:57:27;14.10;99.90
4699;DHT22;33708;49.466;11.176;2024-02-15T15:59:52;14.00;99.90
4699;DHT22;33708;49.466;11.176;2024-02-15T16:02:18;13.90;99.90
4699;DHT22;33708;49.466;11.176;2024-02-15T16:04:45;13.80;99.90
4699;DHT22;33708;49.466;11.176;2024-02-15T16:07:12;13.70;99.90